createdAt,value
2023-12-20T00:00:08.338Z,3.40
2023-12-20T00:02:34.995Z,3.85
2023-12-20T00:05:01.945Z,2.95
2023-12-20T00:07:29.202Z,3.63
2023-12-20T00:09:56.128Z,3.20
2023-12-20T00:12:22.963Z,3.08
2023-12-20T00:14:49.826Z,3.40
2023-12-20T00:17:16.500Z,3.28
2023-12-20T00:19:43.273Z,2.95
2023-12-20T00:22:10.149Z,3.03
2023-12-20T00:24:36.854Z,2.97
2023-12-20T00:27:03.753Z,3.22
2023-12-20T00:29:30.560Z,3.03
2023-12-20T00:31:57.370Z,3.42
2023-12-20T00:34:24.119Z,3.20
2023-12-20T00:36:51.072Z,3.70
2023-12-20T00:39:17.811Z,2.97
2023-12-20T00:41:48.457Z,3.15
2023-12-20T00:44:15.245Z,3.17
2023-12-20T00:46:45.227Z,2.67
2023-12-20T00:49:11.976Z,3.00
2023-12-20T00:51:38.795Z,3.10
2023-12-20T00:54:05.570Z,2.70
2023-12-20T00:56:32.321Z,3.10
2023-12-20T00:58:59.145Z,3.30
2023-12-20T01:01:25.960Z,3.15
2023-12-20T01:03:52.982Z,3.72
2023-12-20T01:06:19.987Z,3.53
2023-12-20T01:08:46.728Z,3.10
2023-12-20T01:11:13.492Z,3.53
2023-12-20T01:13:40.514Z,3.60
2023-12-20T01:16:07.427Z,3.80
2023-12-20T01:18:34.419Z,3.72
2023-12-20T01:21:04.978Z,3.88
2023-12-20T01:23:38.722Z,4.05
2023-12-20T01:26:06.856Z,3.72
2023-12-20T01:28:33.630Z,3.85
2023-12-20T01:31:00.439Z,3.78
2023-12-20T01:33:27.384Z,3.92
2023-12-20T01:35:54.368Z,3.30
2023-12-20T01:38:21.327Z,3.22
2023-12-20T01:40:48.082Z,2.83
2023-12-20T01:43:14.918Z,3.33
2023-12-20T01:45:41.799Z,3.25
2023-12-20T01:48:09.821Z,3.72
2023-12-20T01:50:39.863Z,3.88
2023-12-20T01:53:09.637Z,3.70
2023-12-20T01:55:40.925Z,3.65
2023-12-20T01:58:13.455Z,3.22
2023-12-20T02:00:40.347Z,3.72
2023-12-20T02:03:07.442Z,3.85
2023-12-20T02:05:36.318Z,3.40
2023-12-20T02:08:03.194Z,3.72
2023-12-20T02:10:33.480Z,3.72
2023-12-20T02:13:00.389Z,3.50
2023-12-20T02:15:27.541Z,2.95
2023-12-20T02:17:55.112Z,2.78
2023-12-20T02:20:21.781Z,3.30
2023-12-20T02:22:48.485Z,2.78
2023-12-20T02:25:15.389Z,2.83
2023-12-20T02:27:42.210Z,3.67
2023-12-20T02:30:09.821Z,4.35
2023-12-20T02:32:36.840Z,3.58
2023-12-20T02:35:03.760Z,4.57
2023-12-20T02:37:30.506Z,4.57
2023-12-20T02:39:57.305Z,4.22
2023-12-20T02:42:24.011Z,3.90
2023-12-20T02:44:50.744Z,4.45
2023-12-20T02:47:17.576Z,4.25
2023-12-20T02:49:44.549Z,4.57
2023-12-20T02:52:11.267Z,4.25
2023-12-20T02:54:38.079Z,4.18
2023-12-20T02:57:05.115Z,4.25
2023-12-20T02:59:31.785Z,4.32
2023-12-20T03:01:59.020Z,3.97
2023-12-20T03:04:26.274Z,3.90
2023-12-20T03:06:53.139Z,3.13
2023-12-20T03:09:19.969Z,3.20
2023-12-20T03:11:46.664Z,3.17
2023-12-20T03:14:13.328Z,3.08
2023-12-20T03:16:40.185Z,3.20
2023-12-20T03:19:06.946Z,2.97
2023-12-20T03:21:35.024Z,3.35
2023-12-20T03:24:01.842Z,3.40
2023-12-20T03:26:31.153Z,3.17
2023-12-20T03:28:58.020Z,2.80
2023-12-20T03:31:24.963Z,2.85
2023-12-20T03:33:53.647Z,2.70
2023-12-20T03:36:21.225Z,2.33
2023-12-20T03:38:48.131Z,2.55
2023-12-20T03:41:14.925Z,2.03
2023-12-20T03:43:41.745Z,1.88
2023-12-20T03:46:10.158Z,2.20
2023-12-20T03:48:36.933Z,2.25
2023-12-20T03:51:03.808Z,1.85
2023-12-20T03:53:33.301Z,1.67
2023-12-20T03:56:00.573Z,1.83
2023-12-20T03:58:27.332Z,1.60
2023-12-20T04:00:54.231Z,2.10
2023-12-20T04:03:21.000Z,1.80
2023-12-20T04:05:50.570Z,1.50
2023-12-20T04:08:17.516Z,1.50
2023-12-20T04:10:44.418Z,1.73
2023-12-20T04:13:11.173Z,1.88
2023-12-20T04:15:38.090Z,1.42
2023-12-20T04:18:05.169Z,2.38
2023-12-20T04:20:32.185Z,1.63
2023-12-20T04:22:58.949Z,2.00
2023-12-20T04:25:25.616Z,1.30
2023-12-20T04:27:55.422Z,1.80
2023-12-20T04:30:22.265Z,1.65
2023-12-20T04:32:50.421Z,1.42
2023-12-20T04:35:19.772Z,1.65
2023-12-20T04:37:47.121Z,1.40
2023-12-20T04:40:14.654Z,1.55
2023-12-20T04:42:44.250Z,1.17
2023-12-20T04:45:11.083Z,1.67
2023-12-20T04:47:37.923Z,1.77
2023-12-20T04:50:05.496Z,1.52
2023-12-20T04:52:32.563Z,1.63
2023-12-20T04:55:00.695Z,2.00
2023-12-20T04:57:27.497Z,1.70
2023-12-20T04:59:54.224Z,1.95
2023-12-20T05:02:20.961Z,1.58
2023-12-20T05:04:47.770Z,1.92
2023-12-20T05:07:14.575Z,1.63
2023-12-20T05:09:41.458Z,1.60
2023-12-20T05:12:08.402Z,1.35
2023-12-20T05:14:35.287Z,1.45
2023-12-20T05:17:01.954Z,1.45
2023-12-20T05:19:29.393Z,1.40
2023-12-20T05:21:56.229Z,1.60
2023-12-20T05:24:22.925Z,1.55
2023-12-20T05:26:52.214Z,1.92
2023-12-20T05:29:20.590Z,1.27
2023-12-20T05:31:47.562Z,1.38
2023-12-20T05:34:14.483Z,1.50
2023-12-20T05:36:41.329Z,2.25
2023-12-20T05:39:11.923Z,2.47
2023-12-20T05:41:38.733Z,1.52
2023-12-20T05:44:05.510Z,2.10
2023-12-20T05:46:32.156Z,1.98
2023-12-20T05:48:59.252Z,1.45
2023-12-20T05:51:26.001Z,1.65
2023-12-20T05:53:55.443Z,1.67
2023-12-20T05:56:22.083Z,1.55
2023-12-20T05:58:49.032Z,1.42
2023-12-20T06:01:18.451Z,1.15
2023-12-20T06:03:45.409Z,1.80
2023-12-20T06:06:16.915Z,1.77
2023-12-20T06:08:47.423Z,2.55
2023-12-20T06:11:17.012Z,1.45
2023-12-20T06:13:43.773Z,1.40
2023-12-20T06:16:10.642Z,1.00
2023-12-20T06:18:38.696Z,1.65
2023-12-20T06:21:05.928Z,1.55
2023-12-20T06:23:33.960Z,1.27
2023-12-20T06:26:00.672Z,1.27
2023-12-20T06:28:27.481Z,1.40
2023-12-20T06:30:55.885Z,2.25
2023-12-20T06:33:23.764Z,1.33
2023-12-20T06:35:58.293Z,1.55
2023-12-20T06:38:25.036Z,1.40
2023-12-20T06:40:55.055Z,1.35
2023-12-20T06:43:32.520Z,1.80
2023-12-20T06:46:09.040Z,1.45
2023-12-20T06:48:42.451Z,1.63
2023-12-20T06:51:13.939Z,1.40
2023-12-20T06:53:40.776Z,1.67
2023-12-20T06:56:08.770Z,1.40
2023-12-20T06:58:35.606Z,1.55
2023-12-20T07:01:02.402Z,1.65
2023-12-20T07:03:30.244Z,1.70
2023-12-20T07:05:57.243Z,1.42
2023-12-20T07:08:23.909Z,1.45
2023-12-20T07:10:50.670Z,1.55
2023-12-20T07:13:17.425Z,1.50
2023-12-20T07:15:45.008Z,1.60
2023-12-20T07:18:12.399Z,1.63
2023-12-20T07:20:41.865Z,1.30
2023-12-20T07:23:08.521Z,2.17
2023-12-20T07:25:35.310Z,1.42
2023-12-20T07:28:02.323Z,1.50
2023-12-20T07:30:29.616Z,1.60
2023-12-20T07:32:56.358Z,1.42
2023-12-20T07:35:27.312Z,1.70
2023-12-20T07:37:56.487Z,1.98
2023-12-20T07:40:25.657Z,1.85
2023-12-20T07:42:52.407Z,1.25
2023-12-20T07:45:19.346Z,1.70
2023-12-20T07:47:46.634Z,1.52
2023-12-20T07:50:13.938Z,1.77
2023-12-20T07:52:40.772Z,1.38
2023-12-20T07:55:08.202Z,1.58
2023-12-20T07:57:35.153Z,2.20
2023-12-20T08:00:01.982Z,1.35
2023-12-20T08:02:28.796Z,1.75
2023-12-20T08:04:55.522Z,1.58
2023-12-20T08:07:22.449Z,1.55
2023-12-20T08:09:49.562Z,1.65
2023-12-20T08:12:18.311Z,1.30
2023-12-20T08:14:45.016Z,2.08
2023-12-20T08:17:11.908Z,1.60
2023-12-20T08:19:38.772Z,1.52
2023-12-20T08:22:05.667Z,1.48
2023-12-20T08:24:32.544Z,1.10
2023-12-20T08:26:59.213Z,1.58
2023-12-20T08:29:25.957Z,1.45
2023-12-20T08:31:59.147Z,1.80
2023-12-20T08:34:26.113Z,1.58
2023-12-20T08:36:55.987Z,1.70
2023-12-20T08:39:22.785Z,2.30
2023-12-20T08:41:49.770Z,1.45
2023-12-20T08:44:16.554Z,1.65
2023-12-20T08:46:43.359Z,1.58
2023-12-20T08:49:11.398Z,1.50
2023-12-20T08:51:41.361Z,1.60
2023-12-20T08:54:09.392Z,1.52
2023-12-20T08:56:36.332Z,1.90
2023-12-20T08:59:03.191Z,1.30
2023-12-20T09:01:30.078Z,1.30
2023-12-20T09:04:02.865Z,1.48
2023-12-20T09:06:29.806Z,2.03
2023-12-20T09:08:56.636Z,1.60
2023-12-20T09:11:23.510Z,1.10
2023-12-20T09:13:50.385Z,1.55
2023-12-20T09:16:17.758Z,1.65
2023-12-20T09:18:44.730Z,1.50
2023-12-20T09:21:11.531Z,1.73
2023-12-20T09:23:38.357Z,1.67
2023-12-20T09:26:05.354Z,1.73
2023-12-20T09:28:34.001Z,1.63
2023-12-20T09:31:00.961Z,1.85
2023-12-20T09:33:27.769Z,1.63
2023-12-20T09:35:54.969Z,2.08
2023-12-20T09:38:21.981Z,1.75
2023-12-20T09:40:48.834Z,2.22
2023-12-20T09:43:25.448Z,1.65
2023-12-20T09:45:57.003Z,1.80
2023-12-20T09:48:24.838Z,2.03
2023-12-20T09:50:53.773Z,1.75
2023-12-20T09:53:21.186Z,2.05
2023-12-20T09:55:48.063Z,1.70
2023-12-20T09:58:14.849Z,1.80
2023-12-20T10:00:41.637Z,1.90
2023-12-20T10:03:09.836Z,1.90
2023-12-20T10:05:37.161Z,1.83
2023-12-20T10:08:09.232Z,1.55
2023-12-20T10:10:42.446Z,1.75
2023-12-20T10:13:15.076Z,1.30
2023-12-20T10:15:43.816Z,1.60
2023-12-20T10:18:11.094Z,1.77
2023-12-20T10:20:38.087Z,1.63
2023-12-20T10:23:05.333Z,1.90
2023-12-20T10:25:33.518Z,2.60
2023-12-20T10:28:36.152Z,1.83
2023-12-20T10:31:03.519Z,1.63
2023-12-20T10:33:34.864Z,1.88
2023-12-20T10:36:01.909Z,1.85
2023-12-20T10:38:30.434Z,1.70
2023-12-20T10:41:00.657Z,1.70
2023-12-20T10:43:30.636Z,2.13
2023-12-20T10:45:58.321Z,2.92
2023-12-20T10:48:33.968Z,2.53
2023-12-20T10:51:04.049Z,2.42
2023-12-20T10:53:30.801Z,1.67
2023-12-20T10:56:02.247Z,2.10
2023-12-20T10:58:34.403Z,1.90
2023-12-20T11:01:05.252Z,1.98
2023-12-20T11:03:37.513Z,2.20
2023-12-20T11:06:28.575Z,2.25
2023-12-20T11:09:14.220Z,2.00
2023-12-20T11:11:58.262Z,2.13
2023-12-20T11:14:34.531Z,1.75
2023-12-20T11:17:12.703Z,2.65
2023-12-20T11:19:59.714Z,1.92
2023-12-20T11:22:27.251Z,2.30
2023-12-20T11:25:12.446Z,1.85
2023-12-20T11:27:48.191Z,2.25
2023-12-20T11:30:16.668Z,2.13
2023-12-20T11:32:44.619Z,1.90
2023-12-20T11:35:12.233Z,1.88
2023-12-20T11:37:46.108Z,2.08
2023-12-20T11:40:16.034Z,1.92
2023-12-20T11:42:44.293Z,1.67
2023-12-20T11:45:16.577Z,1.88
2023-12-20T11:47:54.801Z,2.20
2023-12-20T11:50:23.300Z,2.05
2023-12-20T11:52:51.020Z,2.50
2023-12-20T11:55:17.906Z,2.22
2023-12-20T11:57:46.500Z,2.38
2023-12-20T12:00:15.013Z,2.15
2023-12-20T12:02:46.819Z,1.80
2023-12-20T12:05:15.274Z,1.73
2023-12-20T12:07:45.615Z,1.27
2023-12-20T12:10:12.656Z,2.38
2023-12-20T12:12:39.458Z,1.65
2023-12-20T12:15:06.921Z,2.00
2023-12-20T12:17:35.500Z,2.15
2023-12-20T12:20:07.772Z,1.83
2023-12-20T12:22:35.008Z,1.25
2023-12-20T12:25:12.232Z,1.35
2023-12-20T12:27:41.516Z,1.95
2023-12-20T12:30:09.617Z,1.27
2023-12-20T12:32:37.461Z,1.77
2023-12-20T12:35:07.909Z,2.15
2023-12-20T12:37:40.680Z,2.25
2023-12-20T12:40:18.133Z,2.50
2023-12-20T12:42:46.964Z,2.10
2023-12-20T12:45:16.037Z,1.23
2023-12-20T12:47:43.067Z,1.60
2023-12-20T12:50:11.154Z,2.10
2023-12-20T12:52:38.749Z,1.65
2023-12-20T12:55:06.369Z,1.67
2023-12-20T12:57:34.055Z,1.77
2023-12-20T13:00:00.878Z,1.77
2023-12-20T13:02:27.611Z,1.73
2023-12-20T13:04:54.572Z,1.70
2023-12-20T13:07:21.453Z,1.77
2023-12-20T13:09:48.320Z,1.55
2023-12-20T13:12:15.782Z,2.05
2023-12-20T13:14:42.637Z,2.55
2023-12-20T13:17:12.022Z,2.00
2023-12-20T13:19:39.237Z,1.73
2023-12-20T13:22:06.089Z,1.83
2023-12-20T13:24:33.723Z,1.20
2023-12-20T13:27:03.217Z,0.60
2023-12-20T13:29:30.043Z,0.60
2023-12-20T13:31:59.696Z,0.80
2023-12-20T13:34:26.686Z,0.90
2023-12-20T13:36:53.614Z,0.93
2023-12-20T13:39:20.488Z,0.70
2023-12-20T13:41:47.194Z,0.80
2023-12-20T13:44:13.912Z,0.50
2023-12-20T13:46:42.184Z,0.70
2023-12-20T13:49:09.126Z,0.55
2023-12-20T13:51:36.145Z,1.98
2023-12-20T13:54:02.843Z,0.60
2023-12-20T13:56:29.758Z,0.90
2023-12-20T13:58:56.772Z,0.80
2023-12-20T14:01:24.921Z,1.50
2023-12-20T14:03:54.026Z,0.82
2023-12-20T14:06:20.735Z,0.80
2023-12-20T14:08:47.593Z,0.82
2023-12-20T14:11:25.786Z,0.57
2023-12-20T14:13:52.741Z,0.93
2023-12-20T14:16:19.501Z,0.50
2023-12-20T14:18:46.588Z,0.60
2023-12-20T14:21:13.284Z,0.55
2023-12-20T14:23:46.000Z,0.70
2023-12-20T14:26:18.236Z,0.50
2023-12-20T14:28:47.381Z,0.60
2023-12-20T14:31:14.160Z,0.57
2023-12-20T14:33:42.485Z,0.40
2023-12-20T14:36:09.758Z,0.40
2023-12-20T14:38:36.897Z,0.50
2023-12-20T14:41:05.589Z,0.50
2023-12-20T14:43:32.382Z,0.60
2023-12-20T14:45:59.270Z,0.70
2023-12-20T14:48:29.413Z,0.60
2023-12-20T14:50:56.297Z,0.75
2023-12-20T14:53:23.869Z,0.70
2023-12-20T14:55:53.368Z,0.80
2023-12-20T14:58:20.147Z,0.50
2023-12-20T15:00:47.090Z,1.00
2023-12-20T15:03:14.635Z,0.82
2023-12-20T15:05:42.009Z,0.60
2023-12-20T15:08:08.818Z,0.85
2023-12-20T15:10:35.618Z,0.70
2023-12-20T15:13:04.948Z,0.70
2023-12-20T15:15:34.995Z,0.70
2023-12-20T15:18:02.167Z,0.82
2023-12-20T15:20:29.027Z,0.88
2023-12-20T15:22:58.655Z,0.90
2023-12-20T15:25:25.460Z,0.70
2023-12-20T15:27:54.906Z,0.98
2023-12-20T15:30:21.887Z,0.57
2023-12-20T15:32:48.979Z,1.02
2023-12-20T15:35:16.080Z,1.05
2023-12-20T15:37:43.738Z,1.20
2023-12-20T15:40:11.796Z,1.05
2023-12-20T15:42:39.692Z,1.08
2023-12-20T15:45:08.809Z,0.80
2023-12-20T15:47:39.023Z,0.68
2023-12-20T15:50:07.701Z,0.70
2023-12-20T15:52:35.031Z,1.45
2023-12-20T15:55:02.425Z,0.82
2023-12-20T15:57:41.811Z,0.60
2023-12-20T16:00:16.714Z,0.90
2023-12-20T16:02:44.512Z,0.77
2023-12-20T16:05:11.245Z,0.88
2023-12-20T16:07:41.340Z,0.93
2023-12-20T16:10:08.566Z,0.90
2023-12-20T16:12:35.509Z,1.35
2023-12-20T16:15:02.669Z,0.82
2023-12-20T16:17:29.714Z,0.60
2023-12-20T16:19:57.186Z,1.23
2023-12-20T16:22:24.134Z,1.00
2023-12-20T16:24:51.027Z,0.90
2023-12-20T16:27:17.753Z,1.35
2023-12-20T16:29:45.643Z,0.98
2023-12-20T16:32:12.382Z,1.00
2023-12-20T16:34:39.617Z,1.23
2023-12-20T16:37:09.039Z,1.38
2023-12-20T16:39:35.764Z,0.63
2023-12-20T16:42:03.342Z,0.90
2023-12-20T16:44:30.518Z,1.27
2023-12-20T16:46:57.351Z,1.10
2023-12-20T16:49:24.110Z,1.20
2023-12-20T16:51:50.987Z,0.93
2023-12-20T16:54:17.795Z,1.00
2023-12-20T16:56:45.037Z,1.00
2023-12-20T16:59:11.817Z,1.20
2023-12-20T17:01:38.706Z,1.35
2023-12-20T17:04:05.628Z,0.98
2023-12-20T17:06:35.309Z,0.90
2023-12-20T17:09:02.030Z,1.10
2023-12-20T17:11:28.784Z,1.38
2023-12-20T17:13:58.331Z,1.38
2023-12-20T17:16:25.098Z,1.48
2023-12-20T17:18:51.835Z,1.33
2023-12-20T17:21:19.275Z,1.48
2023-12-20T17:23:46.635Z,1.40
2023-12-20T17:26:14.101Z,1.95
2023-12-20T17:28:41.393Z,1.60
2023-12-20T17:31:08.335Z,1.73
2023-12-20T17:33:37.837Z,2.20
2023-12-20T17:36:05.230Z,1.90
2023-12-20T17:38:34.164Z,2.00
2023-12-20T17:41:00.922Z,1.40
2023-12-20T17:43:27.769Z,1.45
2023-12-20T17:45:54.632Z,1.50
2023-12-20T17:48:22.495Z,1.80
2023-12-20T17:50:50.456Z,2.28
2023-12-20T17:53:17.240Z,1.45
2023-12-20T17:55:44.856Z,2.90
2023-12-20T17:58:14.465Z,1.33
2023-12-20T18:00:41.283Z,1.42
2023-12-20T18:03:08.175Z,1.52
2023-12-20T18:05:34.983Z,1.20
2023-12-20T18:08:01.918Z,1.33
2023-12-20T18:10:29.495Z,1.33
2023-12-20T18:12:57.552Z,1.60
2023-12-20T18:15:24.256Z,1.38
2023-12-20T18:17:51.423Z,1.63
2023-12-20T18:20:18.806Z,1.45
2023-12-20T18:22:45.859Z,1.70
2023-12-20T18:25:12.980Z,1.83
2023-12-20T18:27:42.828Z,1.48
2023-12-20T18:30:15.844Z,1.48
2023-12-20T18:32:44.229Z,1.35
2023-12-20T18:35:11.468Z,1.48
2023-12-20T18:37:38.328Z,1.58
2023-12-20T18:40:06.093Z,1.65
2023-12-20T18:42:33.100Z,1.52
2023-12-20T18:44:59.834Z,1.42
2023-12-20T18:47:26.698Z,1.35
2023-12-20T18:49:56.012Z,1.42
2023-12-20T18:52:24.614Z,1.58
2023-12-20T18:54:51.583Z,1.40
2023-12-20T18:57:18.433Z,1.50
2023-12-20T18:59:45.158Z,1.65
2023-12-20T19:02:14.009Z,1.67
2023-12-20T19:04:41.007Z,1.80
2023-12-20T19:07:07.927Z,1.65
2023-12-20T19:09:34.894Z,1.42
2023-12-20T19:12:01.633Z,1.42
2023-12-20T19:14:28.502Z,1.60
2023-12-20T19:16:55.357Z,2.10
2023-12-20T19:19:22.496Z,1.83
2023-12-20T19:21:52.339Z,1.63
2023-12-20T19:24:19.283Z,1.27
2023-12-20T19:26:46.070Z,1.83
2023-12-20T19:29:12.825Z,1.42
2023-12-20T19:31:39.619Z,1.27
2023-12-20T19:34:06.474Z,1.52
2023-12-20T19:36:33.820Z,1.27
2023-12-20T19:39:01.798Z,2.10
2023-12-20T19:41:28.623Z,2.10
2023-12-20T19:43:59.491Z,1.80
2023-12-20T19:46:26.933Z,1.80
2023-12-20T19:48:54.269Z,1.67
2023-12-20T19:51:22.163Z,1.42
2023-12-20T19:53:52.370Z,1.48
2023-12-20T19:56:19.077Z,1.85
2023-12-20T19:58:45.731Z,2.03
2023-12-20T20:01:14.570Z,1.50
2023-12-20T20:03:41.681Z,1.33
2023-12-20T20:06:08.568Z,1.55
2023-12-20T20:08:38.560Z,1.50
2023-12-20T20:11:10.152Z,1.38
2023-12-20T20:13:44.111Z,1.38
2023-12-20T20:16:10.864Z,1.15
2023-12-20T20:18:40.290Z,1.30
2023-12-20T20:21:08.340Z,1.50
2023-12-20T20:23:37.817Z,1.80
2023-12-20T20:26:04.902Z,1.10
2023-12-20T20:28:34.746Z,1.38
2023-12-20T20:31:01.598Z,1.20
2023-12-20T20:33:31.790Z,1.52
2023-12-20T20:35:58.670Z,1.70
2023-12-20T20:38:26.426Z,1.20
2023-12-20T20:40:56.076Z,1.20
2023-12-20T20:43:23.321Z,1.10
2023-12-20T20:45:53.169Z,1.50
2023-12-20T20:48:28.097Z,1.25
2023-12-20T20:51:00.304Z,1.63
2023-12-20T20:53:30.013Z,1.63
2023-12-20T20:55:56.803Z,1.45
2023-12-20T20:58:24.963Z,1.42
2023-12-20T21:00:52.155Z,1.25
2023-12-20T21:03:19.118Z,0.85
2023-12-20T21:05:46.113Z,1.08
2023-12-20T21:08:12.914Z,1.13
2023-12-20T21:10:39.721Z,1.05
2023-12-20T21:13:06.520Z,1.05
2023-12-20T21:15:36.164Z,1.00
2023-12-20T21:18:04.379Z,1.25
2023-12-20T21:20:31.320Z,0.90
2023-12-20T21:22:59.978Z,1.50
2023-12-20T21:25:27.085Z,1.17
2023-12-20T21:27:54.014Z,0.90
2023-12-20T21:30:20.855Z,1.02
2023-12-20T21:32:48.601Z,1.17
2023-12-20T21:35:15.522Z,1.13
2023-12-20T21:37:45.322Z,1.20
2023-12-20T21:40:12.817Z,0.90
2023-12-20T21:42:39.668Z,1.08
2023-12-20T21:45:11.073Z,0.98
2023-12-20T21:47:37.939Z,0.65
2023-12-20T21:50:14.744Z,1.17
2023-12-20T21:52:41.517Z,1.45
2023-12-20T21:55:08.718Z,1.08
2023-12-20T21:57:38.300Z,0.88
2023-12-20T22:00:05.612Z,1.25
2023-12-20T22:02:32.286Z,1.00
2023-12-20T22:05:00.418Z,1.13
2023-12-20T22:07:27.237Z,1.00
2023-12-20T22:09:53.909Z,0.88
2023-12-20T22:12:20.766Z,0.80
2023-12-20T22:14:47.497Z,1.30
2023-12-20T22:17:15.814Z,1.10
2023-12-20T22:19:42.724Z,0.75
2023-12-20T22:22:09.657Z,0.98
2023-12-20T22:24:36.430Z,0.85
2023-12-20T22:27:03.355Z,0.90
2023-12-20T22:29:30.415Z,0.80
2023-12-20T22:31:57.372Z,1.17
2023-12-20T22:34:24.288Z,1.10
2023-12-20T22:36:51.675Z,0.68
2023-12-20T22:39:18.494Z,1.40
2023-12-20T22:41:45.585Z,0.95
2023-12-20T22:44:14.731Z,0.80
2023-12-20T22:46:42.046Z,0.85
2023-12-20T22:49:19.255Z,0.90
2023-12-20T22:51:46.043Z,1.02
2023-12-20T22:54:12.817Z,0.73
2023-12-20T22:56:39.600Z,1.00
2023-12-20T22:59:06.460Z,1.00
2023-12-20T23:01:33.277Z,0.90
2023-12-20T23:04:00.169Z,0.90
2023-12-20T23:06:26.941Z,0.95
2023-12-20T23:08:53.693Z,0.98
2023-12-20T23:11:20.461Z,0.88
2023-12-20T23:13:47.204Z,0.98
2023-12-20T23:16:13.954Z,0.88
2023-12-20T23:18:43.380Z,0.95
2023-12-20T23:21:10.090Z,1.10
2023-12-20T23:23:36.758Z,0.82
2023-12-20T23:26:03.671Z,1.20
2023-12-20T23:28:30.487Z,0.90
2023-12-20T23:30:57.324Z,0.98
2023-12-20T23:33:24.637Z,1.40
2023-12-20T23:35:51.495Z,1.10
2023-12-20T23:38:18.182Z,1.00
2023-12-20T23:40:44.956Z,1.20
2023-12-20T23:43:12.141Z,1.42
2023-12-20T23:45:38.944Z,1.35
2023-12-20T23:48:06.004Z,1.33
2023-12-20T23:50:35.418Z,1.70
2023-12-20T23:53:05.023Z,2.03
2023-12-20T23:55:31.940Z,1.30
2023-12-20T23:58:02.604Z,1.30
